Thursday, February 11, 2016
10:51 UTC
  |  Log In   |  Register Free
Airport Search:

Skyhaven Airport
(KRCM)

Skyhaven Airport Diagram
No Airport Diagram Available

FAA data valid effective Feb 4 2016 - Mar 31 2016 (unless otherwise noted).

 
 
 
 
 
 
 
 
 
 
 
 
 
 
Summary: Skyhaven (RCM)

Weather Summary


METAR for KRCM is not available. Closest METAR is for KSZL
KRCM  (most recent observation was updatred at 11:10 UTC)
111035Z AUTO 02009KT 10SM CLR M05/M07 A3020 RMK AO2

KSZL  (12.4 nm NW)   (most recent observation was updated at 11:09 UTC)
110958Z 03008KT 10SM CLR M05/M07 A3015 RMK AO2A SLP220 T10541073

KGLY  (26.3 nm NW)   (most recent observation was updated at 11:10 UTC)
111035Z AUTO 04006KT 10SM M03/M06 A3017 RMK AO2

TAF for KRCM is not available.
KSZL  (12.4 nm NW)   (most recent observation was updatred at 11:03 UTC)
110300Z 1103/1209 VRB06KT 9999 SCT030 QNH3000INS BECMG 1116/1117 05009KT 9999 SCT020 SCT100 QNH3021INS BECMG 1201/1202 VRB06KT 9999 SCT010 SCT100 QNH3019INS TX06/1121Z TNM07/1112Z


GlobalAir.com is loading additional information.
 Current Weather at RCM
23.0 F° (-5.0 C°)
Fair
North winds at 8.1 mph
Pressure:
30.14 in
Humidity:
86%
Wind:
North at 8.1 MPH (7 KT)
Dew Point:
19.4 F° (-7.0 C°)
Visibility:
10.00 mi
RCM NOAA Radar

Runway Summary

ID Dimensions Surface Instrument Approaches

Communications Summary


CTAF123.00
UNICOM123.00
ATISN/A
WX AWOS-3
WHITEMAN APPROACH127.45
WHITEMAN DEPARTURE125.925
CLEARANCE DELIVERYN/A

Terminal Procedures Summary


Approaches
More Approaches
Special Minimums

Closest Alternate Airports with Instrument Procedures

KHIG - Higginsville Industrial Municipal - 21 nm NE from RCM

K3GV - East Kansas City - 27.3 nm NW from RCM

K4K3 - Lexington Municipal - 30.2 nm NW from RCM

KGLY - Clinton Memorial - 30.3 nm SE from RCM

KLRY - Lawrence Smith Memorial - 31.6 nm SW from RCM

KLXT - Lee's Summit Municipal - 32.9 nm NW from RCM

KDMO - Sedalia Memorial - 34.2 nm SE from RCM

KMHL - Marshall Memorial Municipal - 38.8 nm NE from RCM

K3EX - Excelsior Springs Memorial - 43.7 nm NW from RCM

KBUM - Butler Memorial - 44.9 nm SW from RCM

Find All Airport Services Find A Hotel Find A Rental Car Find A Golf Course Find A Restaurant $100 Hamburger



FBO's on the Field
FBO Company Facility Photos Services Transportation Aviation Fuel Prices: Prices include tax
Catering Weather Repair Courtesy Rental Type 100LL JetA JetA+ MOGAS 8087
 
Add another FBO Facility Photos Catering Weather Repair Courtesy Rental Type 100LL JetA JetA+ MOGAS 8087
Services Transportation Aviation Fuel Prices: Prices include tax
There are no FBO's currently reporting fuel at RCM. List your FBO now


model-print
model-print
model-print
model-print